sensor_id;sensor_type;location;lat;lon;timestamp;pressure;altitude;pressure_sealevel;temperature;humidity
72892;BME280;61032;50.782;6.818;2023-08-30T00:00:19;99865.47;;;16.89;73.82
72892;BME280;61032;50.782;6.818;2023-08-30T00:01:22;99869.03;;;16.82;73.98
72892;BME280;61032;50.782;6.818;2023-08-30T00:02:23;99864.59;;;16.74;73.95
72892;BME280;61032;50.782;6.818;2023-08-30T00:03:23;99874.88;;;16.70;74.03
72892;BME280;61032;50.782;6.818;2023-08-30T00:04:24;99873.66;;;16.68;73.87
72892;BME280;61032;50.782;6.818;2023-08-30T00:05:24;99873.19;;;16.59;74.39
72892;BME280;61032;50.782;6.818;2023-08-30T00:06:25;99867.69;;;16.62;74.45
72892;BME280;61032;50.782;6.818;2023-08-30T00:07:26;99865.28;;;16.61;74.62
72892;BME280;61032;50.782;6.818;2023-08-30T00:08:27;99869.28;;;16.67;74.48
72892;BME280;61032;50.782;6.818;2023-08-30T00:09:27;99874.84;;;16.67;74.43
72892;BME280;61032;50.782;6.818;2023-08-30T00:10:27;99878.81;;;16.66;74.64
72892;BME280;61032;50.782;6.818;2023-08-30T00:11:28;99866.09;;;16.65;74.10
72892;BME280;61032;50.782;6.818;2023-08-30T00:12:30;99875.66;;;16.67;74.06
72892;BME280;61032;50.782;6.818;2023-08-30T00:13:32;99875.69;;;16.71;74.15
72892;BME280;61032;50.782;6.818;2023-08-30T00:14:33;99872.13;;;16.74;73.67
72892;BME280;61032;50.782;6.818;2023-08-30T00:15:33;99872.53;;;16.76;73.54
72892;BME280;61032;50.782;6.818;2023-08-30T00:16:34;99866.97;;;16.72;73.36
72892;BME280;61032;50.782;6.818;2023-08-30T00:17:34;99871.72;;;16.72;73.53
72892;BME280;61032;50.782;6.818;2023-08-30T00:18:34;99864.50;;;16.64;73.88
72892;BME280;61032;50.782;6.818;2023-08-30T00:19:35;99873.22;;;16.62;73.32
72892;BME280;61032;50.782;6.818;2023-08-30T00:20:36;99867.69;;;16.62;73.50
72892;BME280;61032;50.782;6.818;2023-08-30T00:21:36;99865.72;;;16.66;73.65
72892;BME280;61032;50.782;6.818;2023-08-30T00:22:37;99869.28;;;16.67;73.79
72892;BME280;61032;50.782;6.818;2023-08-30T00:23:37;99870.88;;;16.68;73.39
72892;BME280;61032;50.782;6.818;2023-08-30T00:24:38;99866.94;;;16.69;73.60
72892;BME280;61032;50.782;6.818;2023-08-30T00:25:38;99863.78;;;16.70;73.75
72892;BME280;61032;50.782;6.818;2023-08-30T00:26:39;99867.72;;;16.69;73.41
72892;BME280;61032;50.782;6.818;2023-08-30T00:27:39;99866.94;;;16.69;73.74
72892;BME280;61032;50.782;6.818;2023-08-30T00:28:39;99857.00;;;16.68;73.67
72892;BME280;61032;50.782;6.818;2023-08-30T00:29:40;99859.75;;;16.64;73.71
72892;BME280;61032;50.782;6.818;2023-08-30T00:30:40;99857.34;;;16.63;73.99
72892;BME280;61032;50.782;6.818;2023-08-30T00:31:41;99862.16;;;16.66;74.08
72892;BME280;61032;50.782;6.818;2023-08-30T00:32:41;99865.34;;;16.68;74.00
72892;BME280;61032;50.782;6.818;2023-08-30T00:33:41;99861.78;;;16.71;74.03
72892;BME280;61032;50.782;6.818;2023-08-30T00:34:42;99860.63;;;16.72;73.60
72892;BME280;61032;50.782;6.818;2023-08-30T00:35:42;99856.66;;;16.73;73.75
72892;BME280;61032;50.782;6.818;2023-08-30T00:36:42;99857.84;;;16.72;73.87
72892;BME280;61032;50.782;6.818;2023-08-30T00:37:43;99857.41;;;16.70;73.31
72892;BME280;61032;50.782;6.818;2023-08-30T00:38:43;99851.09;;;16.73;73.90
72892;BME280;61032;50.782;6.818;2023-08-30T00:39:43;99851.47;;;16.71;74.00
72892;BME280;61032;50.782;6.818;2023-08-30T00:40:45;99858.63;;;16.72;73.77
72892;BME280;61032;50.782;6.818;2023-08-30T00:41:45;99849.91;;;16.70;73.22
72892;BME280;61032;50.782;6.818;2023-08-30T00:42:45;99849.50;;;16.72;73.50
72892;BME280;61032;50.782;6.818;2023-08-30T00:43:46;99847.16;;;16.74;73.62
72892;BME280;61032;50.782;6.818;2023-08-30T00:44:46;99852.31;;;16.75;73.27
72892;BME280;61032;50.782;6.818;2023-08-30T00:45:47;99854.69;;;16.73;73.33
72892;BME280;61032;50.782;6.818;2023-08-30T00:46:49;99853.50;;;16.74;73.24
72892;BME280;61032;50.782;6.818;2023-08-30T00:47:49;99840.81;;;16.77;73.49
72892;BME280;61032;50.782;6.818;2023-08-30T00:48:49;99841.63;;;16.81;73.44
72892;BME280;61032;50.782;6.818;2023-08-30T00:49:50;99853.53;;;16.81;73.19
72892;BME280;61032;50.782;6.818;2023-08-30T00:50:51;99844.78;;;16.76;73.49
72892;BME280;61032;50.782;6.818;2023-08-30T00:51:52;99850.28;;;16.69;74.02
72892;BME280;61032;50.782;6.818;2023-08-30T00:52:52;99841.94;;;16.69;74.07
72892;BME280;61032;50.782;6.818;2023-08-30T00:53:54;99852.63;;;16.67;74.32
72892;BME280;61032;50.782;6.818;2023-08-30T00:54:55;99848.63;;;16.61;74.65
72892;BME280;61032;50.782;6.818;2023-08-30T00:55:55;99849.84;;;16.63;74.58
72892;BME280;61032;50.782;6.818;2023-08-30T00:56:56;99850.28;;;16.69;74.60
72892;BME280;61032;50.782;6.818;2023-08-30T00:57:57;99845.94;;;16.71;74.41
72892;BME280;61032;50.782;6.818;2023-08-30T00:58:58;99846.69;;;16.68;74.17
72892;BME280;61032;50.782;6.818;2023-08-30T00:59:59;99842.31;;;16.64;74.33
72892;BME280;61032;50.782;6.818;2023-08-30T01:00:59;99841.09;;;16.61;74.27
72892;BME280;61032;50.782;6.818;2023-08-30T01:02:00;99835.56;;;16.65;74.28
72892;BME280;61032;50.782;6.818;2023-08-30T01:03:01;99841.47;;;16.60;74.78
72892;BME280;61032;50.782;6.818;2023-08-30T01:04:03;99837.16;;;16.66;74.23
72892;BME280;61032;50.782;6.818;2023-08-30T01:05:04;99834.41;;;16.69;74.33
72892;BME280;61032;50.782;6.818;2023-08-30T01:06:04;99832.84;;;16.72;74.31
72892;BME280;61032;50.782;6.818;2023-08-30T01:07:05;99835.25;;;16.73;73.78
72892;BME280;61032;50.782;6.818;2023-08-30T01:08:05;99828.09;;;16.72;73.41
72892;BME280;61032;50.782;6.818;2023-08-30T01:09:06;99828.88;;;16.73;73.60
72892;BME280;61032;50.782;6.818;2023-08-30T01:10:07;99832.06;;;16.75;73.44
72892;BME280;61032;50.782;6.818;2023-08-30T01:11:16;99833.28;;;16.77;73.20
72892;BME280;61032;50.782;6.818;2023-08-30T01:12:48;99828.06;;;16.69;73.06
72892;BME280;61032;50.782;6.818;2023-08-30T01:13:56;99828.09;;;16.72;73.21
72892;BME280;61032;50.782;6.818;2023-08-30T01:16:02;99825.28;;;16.69;73.21
72892;BME280;61032;50.782;6.818;2023-08-30T01:17:05;99817.38;;;16.71;73.34
72892;BME280;61032;50.782;6.818;2023-08-30T01:18:06;99810.63;;;16.72;73.31
72892;BME280;61032;50.782;6.818;2023-08-30T01:19:51;99818.53;;;16.66;73.56
72892;BME280;61032;50.782;6.818;2023-08-30T01:20:35;99817.31;;;16.60;73.66
72892;BME280;61032;50.782;6.818;2023-08-30T01:21:56;99819.31;;;16.63;73.83
72892;BME280;61032;50.782;6.818;2023-08-30T01:23:06;99810.59;;;16.65;73.68
72892;BME280;61032;50.782;6.818;2023-08-30T01:24:13;99810.59;;;16.65;73.76
72892;BME280;61032;50.782;6.818;2023-08-30T01:25:45;99809.78;;;16.61;73.83
72892;BME280;61032;50.782;6.818;2023-08-30T01:27:19;99811.72;;;16.57;73.83
72892;BME280;61032;50.782;6.818;2023-08-30T01:28:22;99801.03;;;16.59;74.01
72892;BME280;61032;50.782;6.818;2023-08-30T01:29:24;99806.56;;;16.55;73.82
72892;BME280;61032;50.782;6.818;2023-08-30T01:30:26;99805.00;;;16.58;73.74
72892;BME280;61032;50.782;6.818;2023-08-30T01:31:28;99809.34;;;16.59;73.89
72892;BME280;61032;50.782;6.818;2023-08-30T01:32:31;99809.00;;;16.64;73.74
72892;BME280;61032;50.782;6.818;2023-08-30T01:33:34;99802.28;;;16.65;73.62
72892;BME280;61032;50.782;6.818;2023-08-30T01:34:40;99802.28;;;16.65;73.76
72892;BME280;61032;50.782;6.818;2023-08-30T01:35:42;99803.03;;;16.62;73.70
72892;BME280;61032;50.782;6.818;2023-08-30T01:36:43;99802.28;;;16.65;73.87
72892;BME280;61032;50.782;6.818;2023-08-30T01:37:46;99798.69;;;16.64;73.81
72892;BME280;61032;50.782;6.818;2023-08-30T01:38:46;99795.47;;;16.59;73.83
72892;BME280;61032;50.782;6.818;2023-08-30T01:39:48;99806.59;;;16.62;74.00
72892;BME280;61032;50.782;6.818;2023-08-30T01:40:48;99799.06;;;16.59;73.88
72892;BME280;61032;50.782;6.818;2023-08-30T01:41:49;99801.03;;;16.59;74.02
72892;BME280;61032;50.782;6.818;2023-08-30T01:42:53;99791.88;;;16.55;74.16
72892;BME280;61032;50.782;6.818;2023-08-30T01:43:55;99798.63;;;16.54;74.36
72892;BME280;61032;50.782;6.818;2023-08-30T01:44:58;99808.09;;;16.49;74.39
72892;BME280;61032;50.782;6.818;2023-08-30T01:46:01;99796.97;;;16.45;74.89
72892;BME280;61032;50.782;6.818;2023-08-30T01:47:03;99797.38;;;16.47;74.37
72892;BME280;61032;50.782;6.818;2023-08-30T01:48:04;99798.97;;;16.48;74.52
72892;BME280;61032;50.782;6.818;2023-08-30T01:49:06;99798.56;;;16.46;74.47
72892;BME280;61032;50.782;6.818;2023-08-30T01:50:08;99796.94;;;16.42;74.49
72892;BME280;61032;50.782;6.818;2023-08-30T01:51:09;99797.38;;;16.40;74.94
72892;BME280;61032;50.782;6.818;2023-08-30T01:52:10;99796.19;;;16.41;74.85
72892;BME280;61032;50.782;6.818;2023-08-30T01:53:12;99798.53;;;16.39;74.85
72892;BME280;61032;50.782;6.818;2023-08-30T01:54:17;99788.22;;;16.36;74.70
72892;BME280;61032;50.782;6.818;2023-08-30T01:55:20;99797.66;;;16.28;74.93
72892;BME280;61032;50.782;6.818;2023-08-30T01:56:21;99794.44;;;16.23;75.58
72892;BME280;61032;50.782;6.818;2023-08-30T01:57:22;99790.50;;;16.24;75.67
72892;BME280;61032;50.782;6.818;2023-08-30T01:58:22;99788.09;;;16.22;75.55
72892;BME280;61032;50.782;6.818;2023-08-30T01:59:24;99791.19;;;16.10;76.10
72892;BME280;61032;50.782;6.818;2023-08-30T02:00:24;99791.13;;;16.03;76.60
72892;BME280;61032;50.782;6.818;2023-08-30T02:01:24;99784.00;;;16.02;76.98
72892;BME280;61032;50.782;6.818;2023-08-30T02:02:29;99787.19;;;16.04;77.00
72892;BME280;61032;50.782;6.818;2023-08-30T02:03:29;99786.03;;;16.08;76.97
72892;BME280;61032;50.782;6.818;2023-08-30T02:04:30;99781.69;;;16.11;76.38
72892;BME280;61032;50.782;6.818;2023-08-30T02:05:33;99783.66;;;16.10;76.61
72892;BME280;61032;50.782;6.818;2023-08-30T02:06:45;99787.25;;;16.11;76.38
72892;BME280;61032;50.782;6.818;2023-08-30T02:08:05;99789.59;;;16.09;76.67
72892;BME280;61032;50.782;6.818;2023-08-30T02:09:15;99793.94;;;16.06;76.62
72892;BME280;61032;50.782;6.818;2023-08-30T02:10:23;99788.78;;;16.05;76.94
72892;BME280;61032;50.782;6.818;2023-08-30T02:11:27;99787.97;;;16.04;76.88
72892;BME280;61032;50.782;6.818;2023-08-30T02:12:49;99786.75;;;16.02;76.70
72892;BME280;61032;50.782;6.818;2023-08-30T02:13:51;99786.75;;;16.02;76.86
72892;BME280;61032;50.782;6.818;2023-08-30T02:14:54;99791.13;;;16.03;76.66
72892;BME280;61032;50.782;6.818;2023-08-30T02:15:56;99784.41;;;16.04;76.93
72892;BME280;61032;50.782;6.818;2023-08-30T02:16:59;99788.78;;;16.05;77.09
72892;BME280;61032;50.782;6.818;2023-08-30T02:17:59;99792.72;;;16.04;76.81
72892;BME280;61032;50.782;6.818;2023-08-30T02:19:00;99789.94;;;16.04;76.72
72892;BME280;61032;50.782;6.818;2023-08-30T02:20:01;99787.94;;;16.01;76.96
72892;BME280;61032;50.782;6.818;2023-08-30T02:21:02;99791.91;;;16.00;77.03
72892;BME280;61032;50.782;6.818;2023-08-30T02:22:03;99795.88;;;15.99;76.79
72892;BME280;61032;50.782;6.818;2023-08-30T02:23:03;99798.22;;;15.97;77.15
72892;BME280;61032;50.782;6.818;2023-08-30T02:24:04;99795.84;;;15.95;77.01
72892;BME280;61032;50.782;6.818;2023-08-30T02:25:05;99794.28;;;16.01;77.26
72892;BME280;61032;50.782;6.818;2023-08-30T02:26:06;99803.06;;;16.07;76.82
72892;BME280;61032;50.782;6.818;2023-08-30T02:27:06;99803.88;;;16.11;76.58
72892;BME280;61032;50.782;6.818;2023-08-30T02:28:07;99794.34;;;16.08;76.46
72892;BME280;61032;50.782;6.818;2023-08-30T02:29:07;99803.47;;;16.09;76.40
72892;BME280;61032;50.782;6.818;2023-08-30T02:30:08;99794.31;;;16.05;76.43
72892;BME280;61032;50.782;6.818;2023-08-30T02:31:09;99800.22;;;15.96;76.62
72892;BME280;61032;50.782;6.818;2023-08-30T02:32:09;99796.22;;;15.94;77.22
72892;BME280;61032;50.782;6.818;2023-08-30T02:33:09;99797.41;;;15.93;77.28
72892;BME280;61032;50.782;6.818;2023-08-30T02:34:10;99795.03;;;15.95;77.07
72892;BME280;61032;50.782;6.818;2023-08-30T02:35:10;99783.56;;;15.96;77.34
72892;BME280;61032;50.782;6.818;2023-08-30T02:36:10;99794.28;;;15.98;76.92
72892;BME280;61032;50.782;6.818;2023-08-30T02:37:11;99797.06;;;15.98;76.92
72892;BME280;61032;50.782;6.818;2023-08-30T02:38:11;99789.53;;;15.98;77.21
72892;BME280;61032;50.782;6.818;2023-08-30T02:39:14;99796.66;;;15.99;76.95
72892;BME280;61032;50.782;6.818;2023-08-30T02:40:14;99795.47;;;15.97;77.08
72892;BME280;61032;50.782;6.818;2023-08-30T02:41:14;99796.63;;;15.96;77.23
72892;BME280;61032;50.782;6.818;2023-08-30T02:42:15;99790.59;;;15.87;77.32
72892;BME280;61032;50.782;6.818;2023-08-30T02:43:15;99793.41;;;15.90;77.58
72892;BME280;61032;50.782;6.818;2023-08-30T02:44:16;99791.03;;;15.89;77.24
72892;BME280;61032;50.782;6.818;2023-08-30T02:45:16;99795.00;;;15.91;77.61
72892;BME280;61032;50.782;6.818;2023-08-30T02:46:16;99791.81;;;15.89;77.51
72892;BME280;61032;50.782;6.818;2023-08-30T02:47:17;99785.47;;;15.89;77.25
72892;BME280;61032;50.782;6.818;2023-08-30T02:48:17;99787.06;;;15.90;77.36
72892;BME280;61032;50.782;6.818;2023-08-30T02:49:17;99791.38;;;15.84;77.62
72892;BME280;61032;50.782;6.818;2023-08-30T02:50:18;99789.78;;;15.82;77.77
72892;BME280;61032;50.782;6.818;2023-08-30T02:51:18;99790.16;;;15.81;77.43
72892;BME280;61032;50.782;6.818;2023-08-30T02:52:18;99792.91;;;15.77;77.92
72892;BME280;61032;50.782;6.818;2023-08-30T02:53:19;99785.34;;;15.71;77.84
72892;BME280;61032;50.782;6.818;2023-08-30T02:54:19;99784.91;;;15.69;78.11
72892;BME280;61032;50.782;6.818;2023-08-30T02:55:20;99782.94;;;15.69;77.77
72892;BME280;61032;50.782;6.818;2023-08-30T02:56:20;99789.66;;;15.68;78.01
72892;BME280;61032;50.782;6.818;2023-08-30T02:57:20;99779.00;;;15.70;78.22
72892;BME280;61032;50.782;6.818;2023-08-30T02:58:21;99784.13;;;15.68;78.29
72892;BME280;61032;50.782;6.818;2023-08-30T02:59:22;99779.28;;;15.62;78.33
72892;BME280;61032;50.782;6.818;2023-08-30T03:00:22;99779.69;;;15.60;78.18
72892;BME280;61032;50.782;6.818;2023-08-30T03:01:23;99777.25;;;15.55;78.24
72892;BME280;61032;50.782;6.818;2023-08-30T03:02:23;99784.41;;;15.56;78.57
72892;BME280;61032;50.782;6.818;2023-08-30T03:03:23;99777.25;;;15.55;78.57
72892;BME280;61032;50.782;6.818;2023-08-30T03:04:24;99778.00;;;15.52;78.28
72892;BME280;61032;50.782;6.818;2023-08-30T03:05:24;99784.34;;;15.53;78.68
72892;BME280;61032;50.782;6.818;2023-08-30T03:06:24;99779.56;;;15.50;78.23
72892;BME280;61032;50.782;6.818;2023-08-30T03:07:25;99776.78;;;15.50;78.30
72892;BME280;61032;50.782;6.818;2023-08-30T03:08:25;99774.44;;;15.52;78.27
72892;BME280;61032;50.782;6.818;2023-08-30T03:09:26;99776.75;;;15.46;78.57
72892;BME280;61032;50.782;6.818;2023-08-30T03:10:26;99776.31;;;15.44;79.00
72892;BME280;61032;50.782;6.818;2023-08-30T03:11:26;99776.31;;;15.44;78.79
72892;BME280;61032;50.782;6.818;2023-08-30T03:12:28;99775.09;;;15.41;79.10
72892;BME280;61032;50.782;6.818;2023-08-30T03:13:29;99779.44;;;15.39;79.00
72892;BME280;61032;50.782;6.818;2023-08-30T03:14:29;99773.91;;;15.39;79.12
72892;BME280;61032;50.782;6.818;2023-08-30T03:15:32;99776.28;;;15.37;79.20
72892;BME280;61032;50.782;6.818;2023-08-30T03:16:33;99766.78;;;15.38;79.37
72892;BME280;61032;50.782;6.818;2023-08-30T03:17:35;99766.78;;;15.38;79.22
72892;BME280;61032;50.782;6.818;2023-08-30T03:18:35;99769.16;;;15.36;79.40
72892;BME280;61032;50.782;6.818;2023-08-30T03:19:35;99768.31;;;15.32;79.42
72892;BME280;61032;50.782;6.818;2023-08-30T03:20:36;99769.91;;;15.33;79.51
72892;BME280;61032;50.782;6.818;2023-08-30T03:21:36;99771.50;;;15.34;79.72
72892;BME280;61032;50.782;6.818;2023-08-30T03:22:37;99764.28;;;15.26;79.35
72892;BME280;61032;50.782;6.818;2023-08-30T03:23:37;99762.72;;;15.28;79.34
72892;BME280;61032;50.782;6.818;2023-08-30T03:24:38;99759.94;;;15.28;79.41
72892;BME280;61032;50.782;6.818;2023-08-30T03:25:38;99758.34;;;15.27;79.48
72892;BME280;61032;50.782;6.818;2023-08-30T03:26:38;99758.78;;;15.29;79.00
72892;BME280;61032;50.782;6.818;2023-08-30T03:27:40;99749.63;;;15.25;78.74
72892;BME280;61032;50.782;6.818;2023-08-30T03:28:42;99750.00;;;15.24;78.92
72892;BME280;61032;50.782;6.818;2023-08-30T03:29:43;99749.22;;;15.23;78.97
72892;BME280;61032;50.782;6.818;2023-08-30T03:30:43;99755.13;;;15.22;78.68
72892;BME280;61032;50.782;6.818;2023-08-30T03:31:43;99748.38;;;15.19;78.76
72892;BME280;61032;50.782;6.818;2023-08-30T03:32:44;99748.38;;;15.16;78.57
72892;BME280;61032;50.782;6.818;2023-08-30T03:33:45;99745.97;;;15.18;79.07
72892;BME280;61032;50.782;6.818;2023-08-30T03:34:46;99751.53;;;15.18;78.98
72892;BME280;61032;50.782;6.818;2023-08-30T03:35:46;99751.50;;;15.14;78.98
72892;BME280;61032;50.782;6.818;2023-08-30T03:36:46;99748.31;;;15.12;78.94
72892;BME280;61032;50.782;6.818;2023-08-30T03:37:54;99745.84;;;15.03;79.27
72892;BME280;61032;50.782;6.818;2023-08-30T03:38:54;99752.16;;;15.04;79.22
72892;BME280;61032;50.782;6.818;2023-08-30T03:39:54;99752.50;;;14.99;79.22
72892;BME280;61032;50.782;6.818;2023-08-30T03:40:55;99742.22;;;14.99;79.99
72892;BME280;61032;50.782;6.818;2023-08-30T03:41:55;99741.06;;;15.00;79.38
72892;BME280;61032;50.782;6.818;2023-08-30T03:42:56;99745.78;;;14.96;79.33
72892;BME280;61032;50.782;6.818;2023-08-30T03:43:56;99741.78;;;14.94;79.73
72892;BME280;61032;50.782;6.818;2023-08-30T03:44:56;99744.56;;;14.97;79.50
72892;BME280;61032;50.782;6.818;2023-08-30T03:45:58;99741.00;;;14.97;79.60
72892;BME280;61032;50.782;6.818;2023-08-30T03:46:58;99736.28;;;14.97;79.54
72892;BME280;61032;50.782;6.818;2023-08-30T03:47:58;99740.25;;;14.96;79.73
72892;BME280;61032;50.782;6.818;2023-08-30T03:48:59;99740.56;;;14.91;79.57
72892;BME280;61032;50.782;6.818;2023-08-30T03:49:59;99739.69;;;14.84;79.67
72892;BME280;61032;50.782;6.818;2023-08-30T03:51:00;99740.81;;;14.79;79.79
72892;BME280;61032;50.782;6.818;2023-08-30T03:52:00;99729.75;;;14.79;79.80
72892;BME280;61032;50.782;6.818;2023-08-30T03:53:01;99738.78;;;14.72;79.95
72892;BME280;61032;50.782;6.818;2023-08-30T03:54:01;99750.63;;;14.73;79.98
72892;BME280;61032;50.782;6.818;2023-08-30T03:55:01;99742.72;;;14.71;79.82
72892;BME280;61032;50.782;6.818;2023-08-30T03:56:02;99742.34;;;14.73;80.24
72892;BME280;61032;50.782;6.818;2023-08-30T03:57:04;99744.75;;;14.78;80.01
72892;BME280;61032;50.782;6.818;2023-08-30T03:58:04;99743.09;;;14.70;79.76
72892;BME280;61032;50.782;6.818;2023-08-30T03:59:04;99740.75;;;14.72;80.13
72892;BME280;61032;50.782;6.818;2023-08-30T04:00:05;99740.78;;;14.75;79.69
72892;BME280;61032;50.782;6.818;2023-08-30T04:01:06;99741.16;;;14.74;79.82
72892;BME280;61032;50.782;6.818;2023-08-30T04:02:07;99741.19;;;14.77;79.45
72892;BME280;61032;50.782;6.818;2023-08-30T04:03:08;99736.03;;;14.76;79.81
72892;BME280;61032;50.782;6.818;2023-08-30T04:04:09;99739.06;;;14.64;79.67
72892;BME280;61032;50.782;6.818;2023-08-30T04:05:09;99739.00;;;14.60;79.83
72892;BME280;61032;50.782;6.818;2023-08-30T04:06:10;99739.00;;;14.60;79.81
72892;BME280;61032;50.782;6.818;2023-08-30T04:07:10;99746.94;;;14.62;79.96
72892;BME280;61032;50.782;6.818;2023-08-30T04:08:11;99737.44;;;14.63;79.65
72892;BME280;61032;50.782;6.818;2023-08-30T04:09:11;99739.00;;;14.60;79.77
72892;BME280;61032;50.782;6.818;2023-08-30T04:10:12;99736.59;;;14.59;79.63
72892;BME280;61032;50.782;6.818;2023-08-30T04:11:12;99744.53;;;14.60;79.38
72892;BME280;61032;50.782;6.818;2023-08-30T04:12:12;99735.78;;;14.55;79.51
72892;BME280;61032;50.782;6.818;2023-08-30T04:13:13;99737.28;;;14.49;80.04
72892;BME280;61032;50.782;6.818;2023-08-30T04:14:13;99736.47;;;14.48;80.08
72892;BME280;61032;50.782;6.818;2023-08-30T04:15:13;99743.25;;;14.51;80.36
72892;BME280;61032;50.782;6.818;2023-08-30T04:16:15;99743.13;;;14.43;80.24
72892;BME280;61032;50.782;6.818;2023-08-30T04:17:15;99741.53;;;14.42;80.96
72892;BME280;61032;50.782;6.818;2023-08-30T04:18:16;99741.97;;;14.44;81.13
72892;BME280;61032;50.782;6.818;2023-08-30T04:19:16;99741.97;;;14.44;81.08
72892;BME280;61032;50.782;6.818;2023-08-30T04:20:16;99740.38;;;14.43;81.14
72892;BME280;61032;50.782;6.818;2023-08-30T04:21:17;99736.44;;;14.44;80.82
72892;BME280;61032;50.782;6.818;2023-08-30T04:22:18;99734.69;;;14.36;81.17
72892;BME280;61032;50.782;6.818;2023-08-30T04:23:18;99735.47;;;14.33;81.46
72892;BME280;61032;50.782;6.818;2023-08-30T04:24:18;99734.31;;;14.38;81.47
72892;BME280;61032;50.782;6.818;2023-08-30T04:25:19;99736.53;;;14.25;81.53
72892;BME280;61032;50.782;6.818;2023-08-30T04:26:19;99730.16;;;14.21;82.13
72892;BME280;61032;50.782;6.818;2023-08-30T04:27:19;99736.91;;;14.24;82.29
72892;BME280;61032;50.782;6.818;2023-08-30T04:28:20;99728.25;;;14.25;82.13
72892;BME280;61032;50.782;6.818;2023-08-30T04:29:21;99727.38;;;14.21;81.99
72892;BME280;61032;50.782;6.818;2023-08-30T04:30:21;99726.88;;;14.12;82.07
72892;BME280;61032;50.782;6.818;2023-08-30T04:31:22;99728.78;;;14.08;82.69
72892;BME280;61032;50.782;6.818;2023-08-30T04:32:22;99722.88;;;14.09;83.00
72892;BME280;61032;50.782;6.818;2023-08-30T04:33:23;99724.00;;;14.05;83.28
72892;BME280;61032;50.782;6.818;2023-08-30T04:34:24;99721.59;;;14.03;83.07
72892;BME280;61032;50.782;6.818;2023-08-30T04:35:24;99725.47;;;13.99;83.07
72892;BME280;61032;50.782;6.818;2023-08-30T04:36:24;99729.41;;;13.98;83.45
72892;BME280;61032;50.782;6.818;2023-08-30T04:37:25;99721.56;;;14.00;83.48
72892;BME280;61032;50.782;6.818;2023-08-30T04:38:25;99725.13;;;14.00;83.52
72892;BME280;61032;50.782;6.818;2023-08-30T04:39:26;99727.38;;;13.95;83.47
72892;BME280;61032;50.782;6.818;2023-08-30T04:40:26;99726.13;;;13.89;83.51
72892;BME280;61032;50.782;6.818;2023-08-30T04:41:27;99725.34;;;13.88;83.99
72892;BME280;61032;50.782;6.818;2023-08-30T04:42:27;99725.34;;;13.88;83.84
72892;BME280;61032;50.782;6.818;2023-08-30T04:43:28;99715.50;;;13.91;84.04
72892;BME280;61032;50.782;6.818;2023-08-30T04:44:28;99714.75;;;13.94;83.78
72892;BME280;61032;50.782;6.818;2023-08-30T04:45:29;99723.03;;;13.94;83.49
72892;BME280;61032;50.782;6.818;2023-08-30T04:46:30;99720.25;;;13.94;83.67
72892;BME280;61032;50.782;6.818;2023-08-30T04:47:31;99714.75;;;13.94;83.50
72892;BME280;61032;50.782;6.818;2023-08-30T04:48:31;99713.16;;;13.93;83.34
72892;BME280;61032;50.782;6.818;2023-08-30T04:49:32;99718.72;;;13.96;83.37
72892;BME280;61032;50.782;6.818;2023-08-30T04:50:32;99718.66;;;13.93;83.09
72892;BME280;61032;50.782;6.818;2023-08-30T04:51:32;99719.88;;;13.92;83.21
72892;BME280;61032;50.782;6.818;2023-08-30T04:52:33;99721.03;;;13.91;83.34
72892;BME280;61032;50.782;6.818;2023-08-30T04:53:33;99726.56;;;13.91;83.47
72892;BME280;61032;50.782;6.818;2023-08-30T04:54:33;99713.47;;;13.88;83.27
72892;BME280;61032;50.782;6.818;2023-08-30T04:55:34;99715.81;;;13.86;83.19
72892;BME280;61032;50.782;6.818;2023-08-30T04:56:34;99729.28;;;13.87;83.27
72892;BME280;61032;50.782;6.818;2023-08-30T04:57:35;99721.41;;;13.89;83.33
72892;BME280;61032;50.782;6.818;2023-08-30T04:58:35;99722.19;;;13.90;82.92
72892;BME280;61032;50.782;6.818;2023-08-30T04:59:35;99723.00;;;13.90;83.00
72892;BME280;61032;50.782;6.818;2023-08-30T05:00:36;99724.59;;;13.91;83.08
72892;BME280;61032;50.782;6.818;2023-08-30T05:01:36;99724.19;;;13.93;83.15
72892;BME280;61032;50.782;6.818;2023-08-30T05:02:39;99719.06;;;13.91;82.58
72892;BME280;61032;50.782;6.818;2023-08-30T05:03:40;99721.44;;;13.93;82.81
72892;BME280;61032;50.782;6.818;2023-08-30T05:04:40;99717.19;;;13.99;82.39
72892;BME280;61032;50.782;6.818;2023-08-30T05:05:45;99710.50;;;14.00;82.04
72892;BME280;61032;50.782;6.818;2023-08-30T05:06:45;99710.06;;;13.98;82.09
72892;BME280;61032;50.782;6.818;2023-08-30T05:07:45;99704.81;;;13.89;81.89
72892;BME280;61032;50.782;6.818;2023-08-30T05:08:45;99706.06;;;13.92;81.81
72892;BME280;61032;50.782;6.818;2023-08-30T05:09:46;99711.97;;;13.94;82.09
72892;BME280;61032;50.782;6.818;2023-08-30T05:10:46;99714.44;;;13.99;81.84
72892;BME280;61032;50.782;6.818;2023-08-30T05:11:47;99710.50;;;14.00;81.55
72892;BME280;61032;50.782;6.818;2023-08-30T05:12:47;99713.25;;;14.00;81.27
72892;BME280;61032;50.782;6.818;2023-08-30T05:13:51;99713.69;;;14.02;81.06
72892;BME280;61032;50.782;6.818;2023-08-30T05:14:52;99703.81;;;14.01;80.70
72892;BME280;61032;50.782;6.818;2023-08-30T05:15:52;99713.69;;;14.02;80.59
72892;BME280;61032;50.782;6.818;2023-08-30T05:16:52;99712.47;;;13.99;80.60
72892;BME280;61032;50.782;6.818;2023-08-30T05:17:53;99703.81;;;14.01;80.36
72892;BME280;61032;50.782;6.818;2023-08-30T05:18:53;99702.56;;;13.98;80.51
72892;BME280;61032;50.782;6.818;2023-08-30T05:19:54;99713.19;;;13.96;80.41
72892;BME280;61032;50.782;6.818;2023-08-30T05:20:54;99708.91;;;13.99;80.48
72892;BME280;61032;50.782;6.818;2023-08-30T05:21:54;99708.03;;;13.95;80.72
72892;BME280;61032;50.782;6.818;2023-08-30T05:22:55;99701.78;;;13.98;80.69
72892;BME280;61032;50.782;6.818;2023-08-30T05:23:56;99709.31;;;14.01;80.53
72892;BME280;61032;50.782;6.818;2023-08-30T05:24:56;99708.91;;;13.99;80.52
72892;BME280;61032;50.782;6.818;2023-08-30T05:25:57;99714.00;;;13.97;80.82
72892;BME280;61032;50.782;6.818;2023-08-30T05:26:57;99706.84;;;13.92;81.09